createdAt,value
2019-06-20T00:00:08.761Z,23.60
2019-06-20T00:02:43.528Z,23.50
2019-06-20T00:05:16.394Z,23.50
2019-06-20T00:07:49.338Z,23.60
2019-06-20T00:10:22.189Z,24.00
2019-06-20T00:13:00.299Z,23.80
2019-06-20T00:15:29.802Z,23.90
2019-06-20T00:18:02.808Z,24.10
2019-06-20T00:20:37.268Z,24.10
2019-06-20T00:23:10.166Z,24.50
2019-06-20T00:25:42.964Z,24.40
2019-06-20T00:28:15.823Z,24.50
2019-06-20T00:30:48.668Z,24.50
2019-06-20T00:33:21.613Z,24.50
2019-06-20T00:35:54.652Z,24.40
2019-06-20T00:38:28.566Z,23.90
2019-06-20T00:41:01.388Z,23.20
2019-06-20T00:43:34.387Z,22.80
2019-06-20T00:46:07.404Z,22.30
2019-06-20T00:48:40.205Z,21.80
2019-06-20T00:51:13.036Z,21.30
2019-06-20T00:53:45.916Z,21.10
2019-06-20T00:56:18.774Z,20.90
2019-06-20T00:58:51.680Z,21.10
2019-06-20T01:01:24.663Z,20.90
2019-06-20T01:03:57.524Z,20.90
2019-06-20T01:06:30.338Z,20.70
2019-06-20T01:09:06.452Z,20.80
2019-06-20T01:11:39.482Z,20.60
2019-06-20T01:14:12.377Z,20.60
2019-06-20T01:16:45.288Z,20.50
2019-06-20T01:19:18.141Z,20.40
2019-06-20T01:21:50.948Z,20.70
2019-06-20T01:24:23.828Z,20.30
2019-06-20T01:26:56.661Z,20.20
2019-06-20T01:29:29.508Z,20.10
2019-06-20T01:32:02.531Z,20.00
2019-06-20T01:34:35.361Z,19.90
2019-06-20T01:37:08.180Z,19.90
2019-06-20T01:39:41.113Z,19.80
2019-06-20T01:42:14.029Z,19.80
2019-06-20T01:44:47.146Z,19.80
2019-06-20T01:47:20.009Z,19.80
2019-06-20T01:49:53.076Z,19.80
2019-06-20T01:52:25.955Z,19.80
2019-06-20T01:54:58.878Z,19.80
2019-06-20T01:57:32.005Z,19.70
2019-06-20T02:00:06.844Z,19.80
2019-06-20T02:02:40.799Z,19.80
2019-06-20T02:05:14.734Z,19.80
2019-06-20T02:07:47.669Z,19.80
2019-06-20T02:10:20.692Z,19.80
2019-06-20T02:12:53.655Z,19.80
2019-06-20T02:15:26.536Z,20.00
2019-06-20T02:17:59.532Z,20.00
2019-06-20T02:20:36.496Z,20.10
2019-06-20T02:23:09.533Z,20.20
2019-06-20T02:25:42.334Z,20.10
2019-06-20T02:28:15.351Z,20.20
2019-06-20T02:30:48.169Z,20.20
2019-06-20T02:33:21.052Z,20.00
2019-06-20T02:35:53.858Z,19.90
2019-06-20T02:38:26.714Z,19.90
2019-06-20T02:40:59.675Z,19.80
2019-06-20T02:43:32.733Z,19.70
2019-06-20T02:46:07.396Z,19.60
2019-06-20T02:48:40.231Z,19.60
2019-06-20T02:51:13.655Z,19.50
2019-06-20T02:53:46.547Z,19.50
2019-06-20T02:56:19.807Z,19.30
2019-06-20T02:58:52.691Z,19.30
2019-06-20T03:01:26.185Z,19.30
2019-06-20T03:03:59.020Z,19.20
2019-06-20T03:06:31.858Z,19.30
2019-06-20T03:09:06.589Z,19.50
2019-06-20T03:11:39.407Z,19.60
2019-06-20T03:14:12.273Z,19.60
2019-06-20T03:16:45.083Z,19.30
2019-06-20T03:19:17.894Z,19.20
2019-06-20T03:21:50.738Z,19.00
2019-06-20T03:24:23.555Z,19.00
2019-06-20T03:26:56.365Z,19.00
2019-06-20T03:29:29.209Z,19.00
2019-06-20T03:32:02.043Z,19.10
2019-06-20T03:34:34.908Z,19.00
2019-06-20T03:37:07.900Z,18.90
2019-06-20T03:39:40.857Z,19.10
2019-06-20T03:42:13.717Z,18.90
2019-06-20T03:45:01.308Z,19.10
2019-06-20T03:47:21.233Z,18.90
2019-06-20T03:49:54.071Z,18.90
2019-06-20T03:52:26.927Z,18.80
2019-06-20T03:54:59.760Z,18.80
2019-06-20T03:57:32.613Z,18.70
2019-06-20T04:00:06.413Z,18.70
2019-06-20T04:02:39.429Z,18.70
2019-06-20T04:05:12.405Z,18.50
2019-06-20T04:07:45.237Z,18.60
2019-06-20T04:10:18.044Z,18.90
2019-06-20T04:12:50.867Z,18.70
2019-06-20T04:15:23.804Z,18.90
2019-06-20T04:17:57.305Z,18.90
2019-06-20T04:20:30.251Z,18.90
2019-06-20T04:23:03.061Z,19.00
2019-06-20T04:25:35.933Z,19.00
2019-06-20T04:28:08.757Z,18.70
2019-06-20T04:30:41.617Z,19.30
2019-06-20T04:33:14.702Z,20.00
2019-06-20T04:35:47.543Z,20.70
2019-06-20T04:38:20.336Z,21.30
2019-06-20T04:40:53.165Z,21.80
2019-06-20T04:43:27.187Z,22.30
2019-06-20T04:46:19.294Z,23.00
2019-06-20T04:48:52.167Z,23.80
2019-06-20T04:51:24.946Z,24.80
2019-06-20T04:53:57.902Z,25.00
2019-06-20T04:56:31.769Z,25.20
2019-06-20T04:59:04.750Z,24.70
2019-06-20T05:01:37.773Z,25.30
2019-06-20T05:04:10.546Z,25.70
2019-06-20T05:06:49.295Z,26.70
2019-06-20T05:09:22.150Z,27.00
2019-06-20T05:11:55.055Z,27.10
2019-06-20T05:14:27.930Z,27.50
2019-06-20T05:17:00.729Z,28.00
2019-06-20T05:19:33.559Z,28.30
2019-06-20T05:22:06.482Z,28.20
2019-06-20T05:24:39.421Z,28.80
2019-06-20T05:27:12.284Z,29.10
2019-06-20T05:29:45.326Z,29.30
2019-06-20T05:32:18.174Z,29.70
2019-06-20T05:34:51.001Z,29.20
2019-06-20T05:37:23.847Z,29.50
2019-06-20T05:39:56.719Z,29.50
2019-06-20T05:42:29.700Z,28.70
2019-06-20T05:45:03.173Z,28.00
2019-06-20T05:47:35.982Z,28.50
2019-06-20T05:50:09.796Z,29.20
2019-06-20T05:52:42.628Z,29.00
2019-06-20T05:55:15.859Z,28.50
2019-06-20T05:57:48.796Z,28.30
2019-06-20T06:00:22.419Z,27.80
2019-06-20T06:02:58.298Z,27.80
2019-06-20T06:05:31.156Z,26.80
2019-06-20T06:08:04.086Z,27.00
2019-06-20T06:10:36.890Z,26.80
2019-06-20T06:13:09.700Z,26.90
2019-06-20T06:15:42.940Z,26.40
2019-06-20T06:18:15.819Z,26.10
2019-06-20T06:20:48.669Z,27.00
2019-06-20T06:23:21.507Z,28.40
2019-06-20T06:25:54.492Z,27.80
2019-06-20T06:28:27.576Z,27.10
2019-06-20T06:31:00.440Z,26.80
2019-06-20T06:33:33.259Z,27.00
2019-06-20T06:36:06.254Z,27.20
2019-06-20T06:38:39.238Z,26.90
2019-06-20T06:41:12.219Z,27.30
2019-06-20T06:43:45.529Z,27.40
2019-06-20T06:46:19.064Z,26.60
2019-06-20T06:48:51.938Z,26.70
2019-06-20T06:51:24.978Z,26.30
2019-06-20T06:53:57.813Z,25.40
2019-06-20T06:56:31.106Z,25.00
2019-06-20T06:59:04.168Z,24.70
2019-06-20T07:01:37.037Z,24.30
2019-06-20T07:04:10.880Z,24.30
2019-06-20T07:06:44.050Z,24.30
2019-06-20T07:09:18.073Z,24.30
2019-06-20T07:11:51.184Z,24.10
2019-06-20T07:14:24.230Z,23.90
2019-06-20T07:17:00.607Z,23.80
2019-06-20T07:19:33.140Z,23.60
2019-06-20T07:22:06.529Z,23.40
2019-06-20T07:24:39.387Z,23.20
2019-06-20T07:27:12.401Z,23.20
2019-06-20T07:29:45.278Z,23.50
2019-06-20T07:32:18.406Z,23.50
2019-06-20T07:34:51.243Z,23.50
2019-06-20T07:37:24.788Z,23.10
2019-06-20T07:39:59.700Z,23.20
2019-06-20T07:42:33.862Z,23.00
2019-06-20T07:45:09.136Z,23.30
2019-06-20T07:47:42.108Z,23.50
2019-06-20T07:50:14.992Z,23.80
2019-06-20T07:53:01.520Z,24.10
2019-06-20T07:55:24.176Z,24.30
2019-06-20T07:57:57.630Z,24.40
2019-06-20T08:00:31.013Z,24.40
2019-06-20T08:03:04.947Z,25.00
2019-06-20T08:05:37.742Z,25.90
2019-06-20T08:08:10.793Z,26.40
2019-06-20T08:10:45.676Z,27.80
2019-06-20T08:13:18.887Z,28.50
2019-06-20T08:15:52.880Z,28.20
2019-06-20T08:18:25.890Z,27.70
2019-06-20T08:20:58.927Z,28.20
2019-06-20T08:23:31.890Z,28.60
2019-06-20T08:26:04.891Z,29.00
2019-06-20T08:28:37.718Z,29.20
2019-06-20T08:31:10.821Z,29.80
2019-06-20T08:33:43.621Z,30.20
2019-06-20T08:36:16.573Z,30.60
2019-06-20T08:41:22.526Z,27.60
2019-06-20T08:43:56.749Z,27.20
2019-06-20T08:46:30.552Z,26.70
2019-06-20T08:49:04.300Z,27.30
2019-06-20T08:51:37.514Z,27.40
2019-06-20T08:54:10.385Z,28.30
2019-06-20T08:56:44.314Z,29.10
2019-06-20T08:59:24.238Z,29.20
2019-06-20T09:01:52.073Z,29.30
2019-06-20T09:04:25.047Z,29.10
2019-06-20T09:06:59.163Z,28.30
2019-06-20T09:09:32.958Z,27.40
2019-06-20T09:12:06.845Z,27.50
2019-06-20T09:14:39.863Z,27.10
2019-06-20T09:17:12.757Z,27.00
2019-06-20T09:19:45.781Z,27.20
2019-06-20T09:22:19.142Z,27.40
2019-06-20T09:24:53.675Z,27.40
2019-06-20T09:27:27.071Z,27.50
2019-06-20T09:30:00.623Z,27.10
2019-06-20T09:32:33.567Z,26.60
2019-06-20T09:35:07.500Z,26.70
2019-06-20T09:37:40.608Z,26.50
2019-06-20T09:40:14.288Z,26.70
2019-06-20T09:42:47.318Z,26.70
2019-06-20T09:45:20.779Z,26.60
2019-06-20T09:47:53.932Z,27.70
2019-06-20T09:50:27.550Z,27.80
2019-06-20T09:53:01.601Z,27.30
2019-06-20T09:55:34.576Z,27.30
2019-06-20T09:58:07.585Z,27.60
2019-06-20T10:00:40.557Z,27.60
2019-06-20T10:03:13.537Z,27.40
2019-06-20T10:05:47.689Z,27.40
2019-06-20T10:08:21.372Z,27.60
2019-06-20T10:10:54.422Z,27.80
2019-06-20T10:13:27.324Z,28.20
2019-06-20T10:16:00.321Z,28.50
2019-06-20T10:18:33.376Z,28.00
2019-06-20T10:21:06.243Z,28.30
2019-06-20T10:23:39.254Z,27.70
2019-06-20T10:26:12.271Z,27.30
2019-06-20T10:28:46.314Z,27.70
2019-06-20T10:31:20.022Z,27.90
2019-06-20T10:33:52.979Z,27.80
2019-06-20T10:36:25.971Z,27.80
2019-06-20T10:38:58.960Z,27.70
2019-06-20T10:41:31.843Z,27.90
2019-06-20T10:44:04.813Z,28.10
2019-06-20T10:46:37.674Z,28.10
2019-06-20T10:49:10.519Z,28.00
2019-06-20T10:51:45.834Z,28.30
2019-06-20T10:54:20.721Z,28.50
2019-06-20T10:56:53.566Z,28.50
2019-06-20T10:59:26.405Z,28.60
2019-06-20T11:02:01.281Z,28.20
2019-06-20T11:04:34.239Z,28.00
2019-06-20T11:07:07.664Z,28.20
2019-06-20T11:09:41.264Z,28.20
2019-06-20T11:12:14.224Z,28.40
2019-06-20T11:14:48.464Z,28.30
2019-06-20T11:17:21.337Z,28.30
2019-06-20T11:19:54.287Z,28.90
2019-06-20T11:22:27.213Z,28.70
2019-06-20T11:25:00.065Z,29.00
2019-06-20T11:27:32.970Z,29.20
2019-06-20T11:30:08.446Z,28.80
2019-06-20T11:32:41.405Z,28.90
2019-06-20T11:35:14.440Z,28.70
2019-06-20T11:37:47.448Z,28.70
2019-06-20T11:40:21.031Z,28.50
2019-06-20T11:42:53.883Z,28.40
2019-06-20T11:45:26.777Z,28.40
2019-06-20T11:47:59.771Z,28.50
2019-06-20T11:50:34.450Z,28.90
2019-06-20T11:53:07.559Z,28.40
2019-06-20T11:55:40.834Z,28.30
2019-06-20T11:58:13.724Z,28.60
2019-06-20T12:01:02.564Z,28.50
2019-06-20T12:03:21.610Z,28.80
2019-06-20T12:05:54.584Z,28.60
2019-06-20T12:08:27.472Z,28.20
2019-06-20T12:11:00.316Z,28.70
2019-06-20T12:13:33.245Z,28.90
2019-06-20T12:16:06.076Z,29.10
2019-06-20T12:18:40.218Z,29.10
2019-06-20T12:21:14.115Z,28.20
2019-06-20T12:23:47.144Z,28.10
2019-06-20T12:26:19.981Z,27.60
2019-06-20T12:28:53.262Z,27.40
2019-06-20T12:31:26.155Z,27.00
2019-06-20T12:33:59.050Z,26.20
2019-06-20T12:36:31.865Z,26.00
2019-06-20T12:39:07.239Z,26.10
2019-06-20T12:41:41.218Z,26.10
2019-06-20T12:44:14.236Z,26.60
2019-06-20T12:46:47.118Z,27.20
2019-06-20T12:49:20.051Z,27.60
2019-06-20T12:51:53.024Z,27.90
2019-06-20T12:54:25.901Z,28.00
2019-06-20T12:56:58.764Z,28.00
2019-06-20T12:59:31.716Z,27.90
2019-06-20T13:02:04.762Z,27.60
2019-06-20T13:04:38.798Z,27.60
2019-06-20T13:07:12.396Z,27.40
2019-06-20T13:09:46.310Z,27.40
2019-06-20T13:12:19.623Z,27.50
2019-06-20T13:14:52.495Z,27.50
2019-06-20T13:17:25.381Z,27.50
2019-06-20T13:19:58.217Z,27.60
2019-06-20T13:22:31.079Z,27.50
2019-06-20T13:25:04.511Z,27.40
2019-06-20T13:27:39.087Z,27.60
2019-06-20T13:30:13.074Z,27.70
2019-06-20T13:32:47.141Z,27.80
2019-06-20T13:35:20.655Z,27.90
2019-06-20T13:37:53.664Z,28.10
2019-06-20T13:40:26.616Z,28.10
2019-06-20T13:42:59.504Z,28.40
2019-06-20T13:45:32.366Z,28.10
2019-06-20T13:48:05.229Z,28.10
2019-06-20T13:50:38.658Z,27.90
2019-06-20T13:53:12.950Z,28.20
2019-06-20T13:55:45.900Z,28.30
2019-06-20T13:58:19.039Z,28.20
2019-06-20T14:00:52.749Z,28.40
2019-06-20T14:03:25.684Z,28.50
2019-06-20T14:05:58.578Z,28.60
2019-06-20T14:08:31.488Z,28.50
2019-06-20T14:11:04.413Z,28.70
2019-06-20T14:13:37.371Z,28.50
2019-06-20T14:16:10.283Z,28.80
2019-06-20T14:18:44.514Z,29.00
2019-06-20T14:21:18.095Z,29.00
2019-06-20T14:23:53.746Z,28.50
2019-06-20T14:26:26.796Z,28.10
2019-06-20T14:28:59.655Z,27.70
2019-06-20T14:31:32.491Z,27.60
2019-06-20T14:34:05.744Z,27.60
2019-06-20T14:36:38.594Z,27.80
2019-06-20T14:39:12.340Z,27.80
2019-06-20T14:41:46.462Z,27.90
2019-06-20T14:44:19.530Z,27.80
2019-06-20T14:46:54.179Z,27.80
2019-06-20T14:49:27.111Z,27.40
2019-06-20T14:51:59.909Z,26.20
2019-06-20T14:54:33.667Z,25.80
2019-06-20T14:57:06.421Z,25.30
2019-06-20T14:59:39.160Z,25.30
2019-06-20T15:02:11.760Z,25.20
2019-06-20T15:04:46.152Z,25.20
2019-06-20T15:07:19.220Z,25.40
2019-06-20T15:09:53.221Z,25.10
2019-06-20T15:12:26.223Z,25.40
2019-06-20T15:14:59.062Z,25.40
2019-06-20T15:17:32.025Z,25.50
2019-06-20T15:20:06.603Z,26.10
2019-06-20T15:22:39.657Z,26.20
2019-06-20T15:25:13.215Z,26.80
2019-06-20T15:27:48.095Z,26.60
2019-06-20T15:30:21.048Z,26.70
2019-06-20T15:33:05.844Z,26.90
2019-06-20T15:35:28.649Z,27.00
2019-06-20T15:38:03.418Z,27.10
2019-06-20T15:40:36.323Z,27.30
2019-06-20T15:43:09.127Z,27.30
2019-06-20T15:45:42.225Z,27.50
2019-06-20T15:48:15.102Z,27.40
2019-06-20T15:50:47.843Z,27.30
2019-06-20T15:53:20.548Z,27.00
2019-06-20T15:55:54.326Z,27.20
2019-06-20T15:58:27.034Z,26.90
2019-06-20T16:00:59.983Z,26.70
2019-06-20T16:03:32.883Z,26.80
2019-06-20T16:06:05.961Z,26.70
2019-06-20T16:08:38.727Z,26.80
2019-06-20T16:11:11.491Z,26.90
2019-06-20T16:13:44.283Z,26.90
2019-06-20T16:16:17.230Z,26.70
2019-06-20T16:18:50.065Z,26.90
2019-06-20T16:21:22.885Z,26.50
2019-06-20T16:23:55.866Z,26.60
2019-06-20T16:26:28.860Z,26.70
2019-06-20T16:29:01.613Z,26.70
2019-06-20T16:31:34.328Z,26.60
2019-06-20T16:34:07.209Z,26.40
2019-06-20T16:36:39.929Z,26.00
2019-06-20T16:39:12.922Z,25.90
2019-06-20T16:41:45.969Z,26.20
2019-06-20T16:44:21.738Z,26.30
2019-06-20T16:46:53.363Z,26.20
2019-06-20T16:49:26.126Z,26.20
2019-06-20T16:51:58.819Z,26.20
2019-06-20T16:54:31.768Z,26.20
2019-06-20T16:57:04.684Z,26.10
2019-06-20T16:59:37.531Z,26.10
2019-06-20T17:02:10.536Z,25.80
2019-06-20T17:04:43.431Z,25.80
2019-06-20T17:07:16.418Z,25.70
2019-06-20T17:09:51.211Z,25.80
2019-06-20T17:12:24.124Z,25.90
2019-06-20T17:14:56.977Z,25.80
2019-06-20T17:17:29.847Z,25.60
2019-06-20T17:20:03.046Z,25.40
2019-06-20T17:22:35.861Z,25.10
2019-06-20T17:25:09.297Z,24.80
2019-06-20T17:27:42.227Z,24.60
2019-06-20T17:30:16.155Z,24.40
2019-06-20T17:32:49.021Z,24.20
2019-06-20T17:35:22.135Z,24.50
2019-06-20T17:37:55.068Z,24.60
2019-06-20T17:40:28.505Z,24.80
2019-06-20T17:43:01.399Z,24.60
2019-06-20T17:45:34.331Z,24.80
2019-06-20T17:48:07.323Z,24.70
2019-06-20T17:50:40.418Z,24.70
2019-06-20T17:53:13.292Z,24.60
2019-06-20T17:55:46.150Z,24.50
2019-06-20T17:58:19.104Z,24.50
2019-06-20T18:00:51.851Z,24.60
2019-06-20T18:03:24.579Z,24.60
2019-06-20T18:05:57.424Z,24.50
2019-06-20T18:08:30.332Z,24.30
2019-06-20T18:11:04.266Z,24.30
2019-06-20T18:13:37.062Z,24.30
2019-06-20T18:16:24.222Z,24.30
2019-06-20T18:18:45.681Z,24.30
2019-06-20T18:21:18.674Z,24.30
2019-06-20T18:23:51.575Z,24.20
2019-06-20T18:26:24.636Z,24.30
2019-06-20T18:28:57.709Z,24.20
2019-06-20T18:31:31.982Z,24.10
2019-06-20T18:34:04.991Z,24.00
2019-06-20T18:36:38.000Z,24.00
2019-06-20T18:39:11.594Z,24.00
2019-06-20T18:41:47.395Z,23.90
2019-06-20T18:44:19.588Z,23.70
2019-06-20T18:46:52.446Z,23.70
2019-06-20T18:49:25.293Z,23.70
2019-06-20T18:51:58.152Z,23.80
2019-06-20T18:54:31.036Z,23.80
2019-06-20T18:57:03.909Z,23.20
2019-06-20T18:59:36.906Z,23.00
2019-06-20T19:02:09.794Z,22.70
2019-06-20T19:04:49.529Z,22.60
2019-06-20T19:07:17.531Z,22.80
2019-06-20T19:09:50.775Z,22.60
2019-06-20T19:12:23.685Z,22.50
2019-06-20T19:14:56.535Z,22.40
2019-06-20T19:17:29.498Z,22.40
2019-06-20T19:20:02.545Z,22.20
2019-06-20T19:22:36.543Z,22.10
2019-06-20T19:25:10.817Z,22.00
2019-06-20T19:27:46.610Z,21.90
2019-06-20T19:30:20.561Z,21.80
2019-06-20T19:32:53.412Z,21.50
2019-06-20T19:35:26.290Z,21.60
2019-06-20T19:37:59.165Z,21.40
2019-06-20T19:40:37.608Z,21.40
2019-06-20T19:43:10.531Z,21.20
2019-06-20T19:45:44.087Z,21.20
2019-06-20T19:48:17.055Z,21.10
2019-06-20T19:50:51.122Z,20.90
2019-06-20T19:53:25.800Z,20.90
2019-06-20T19:55:58.682Z,20.90
2019-06-20T19:58:31.657Z,20.90
2019-06-20T20:01:04.493Z,20.80
2019-06-20T20:03:37.615Z,20.80
2019-06-20T20:06:10.477Z,20.90
2019-06-20T20:08:43.386Z,20.90
2019-06-20T20:11:16.224Z,20.80
2019-06-20T20:13:49.116Z,20.80
2019-06-20T20:16:22.023Z,20.90
2019-06-20T20:18:54.944Z,20.90
2019-06-20T20:21:27.818Z,20.80
2019-06-20T20:24:00.716Z,20.70
2019-06-20T20:26:33.590Z,20.70
2019-06-20T20:29:06.417Z,20.40
2019-06-20T20:31:39.282Z,20.30
2019-06-20T20:34:12.293Z,20.10
2019-06-20T20:36:45.336Z,20.00
2019-06-20T20:39:18.434Z,19.90
2019-06-20T20:41:51.485Z,19.80
2019-06-20T20:44:24.421Z,19.60
2019-06-20T20:46:57.277Z,19.40
2019-06-20T20:49:30.334Z,19.30
2019-06-20T20:52:04.253Z,19.30
2019-06-20T20:54:37.271Z,19.30
2019-06-20T20:57:10.346Z,19.30
2019-06-20T20:59:43.270Z,19.30
2019-06-20T21:02:18.179Z,19.30
2019-06-20T21:04:51.188Z,19.20
2019-06-20T21:07:24.098Z,19.10
2019-06-20T21:09:56.971Z,19.00
2019-06-20T21:12:29.956Z,18.90
2019-06-20T21:15:03.493Z,18.80
2019-06-20T21:17:36.521Z,18.80
2019-06-20T21:20:10.615Z,18.60
2019-06-20T21:22:43.479Z,18.50
2019-06-20T21:25:16.443Z,18.40
2019-06-20T21:27:49.427Z,18.30
2019-06-20T21:30:22.523Z,18.30
2019-06-20T21:32:55.452Z,18.30
2019-06-20T21:35:28.650Z,18.30
2019-06-20T21:38:01.720Z,18.30
2019-06-20T21:40:34.654Z,18.30
2019-06-20T21:43:07.637Z,18.30
2019-06-20T21:45:40.753Z,18.30
2019-06-20T21:48:13.781Z,18.30
2019-06-20T21:50:46.692Z,18.30
2019-06-20T21:53:19.605Z,18.40
2019-06-20T21:55:52.547Z,18.40
2019-06-20T21:58:25.605Z,18.40
2019-06-20T22:01:00.534Z,18.30
2019-06-20T22:03:35.368Z,18.40
2019-06-20T22:06:22.870Z,18.30
2019-06-20T22:08:43.123Z,18.20
2019-06-20T22:11:15.956Z,18.30
2019-06-20T22:13:48.930Z,18.20
2019-06-20T22:16:21.759Z,18.20
2019-06-20T22:18:54.695Z,18.30
2019-06-20T22:21:27.662Z,18.30
2019-06-20T22:24:00.571Z,18.40
2019-06-20T22:26:33.802Z,18.50
2019-06-20T22:29:09.306Z,18.50
2019-06-20T22:31:42.464Z,18.50
2019-06-20T22:34:15.647Z,18.40
2019-06-20T22:36:48.667Z,18.40
2019-06-20T22:39:21.704Z,18.40
2019-06-20T22:41:54.666Z,18.30
2019-06-20T22:44:27.541Z,18.10
2019-06-20T22:47:01.359Z,17.90
2019-06-20T22:49:34.199Z,17.60
2019-06-20T22:52:07.123Z,17.20
2019-06-20T22:54:39.960Z,17.00
2019-06-20T22:57:12.826Z,17.00
2019-06-20T22:59:46.723Z,17.00
2019-06-20T23:02:19.734Z,17.00
2019-06-20T23:04:52.603Z,17.00
2019-06-20T23:07:25.522Z,16.70
2019-06-20T23:10:09.957Z,16.70
2019-06-20T23:12:33.064Z,16.60
2019-06-20T23:15:07.965Z,16.60
2019-06-20T23:17:40.961Z,16.60
2019-06-20T23:20:14.899Z,16.60
2019-06-20T23:22:48.030Z,16.70
2019-06-20T23:25:20.901Z,16.90
2019-06-20T23:27:53.740Z,17.00
2019-06-20T23:30:27.404Z,17.10
2019-06-20T23:33:00.376Z,17.20
2019-06-20T23:35:33.868Z,17.30
2019-06-20T23:38:06.652Z,17.30
2019-06-20T23:40:39.470Z,17.40
2019-06-20T23:43:12.289Z,17.30
2019-06-20T23:45:45.174Z,17.20
2019-06-20T23:48:18.082Z,17.10
2019-06-20T23:50:50.910Z,17.10
2019-06-20T23:53:25.772Z,17.10
2019-06-20T23:55:58.592Z,17.20
2019-06-20T23:58:31.400Z,17.30
